Time;durP1;ratioP1;P1;durP2;ratioP2;P2;SDS_P1;SDS_P2;PMS_P1;PMS_P2;Temp;Humidity;BMP_temperature;BMP_pressure;BME280_temperature;BME280_humidity;BME280_pressure;Samples;Min_cycle;Max_cycle;Signal;HPM_P1;HPM_P2
2023/05/06 00:01:56;;;;;;;;;;;23.40;55.70;;;;;;1563516;76;762;-68
2023/05/06 00:03:57;;;;;;;;;;;23.30;56.00;;;;;;1563872;76;750;-68
2023/05/06 00:06:01;;;;;;;;;;;23.30;56.20;;;;;;1563329;75;1501;-68
2023/05/06 00:08:03;;;;;;;;;;;23.30;56.10;;;;;;1562986;76;762;-67
2023/05/06 00:10:05;;;;;;;;;;;23.30;56.30;;;;;;1561385;76;691;-68
2023/05/06 00:12:07;;;;;;;;;;;23.30;56.50;;;;;;1562979;76;1916;-68
2023/05/06 00:14:09;;;;;;;;;;;23.30;56.90;;;;;;1566047;75;703;-69
2023/05/06 00:16:11;;;;;;;;;;;23.30;56.70;;;;;;1561463;75;1100;-69
2023/05/06 00:18:14;;;;;;;;;;;23.20;56.60;;;;;;1562878;76;774;-69
2023/05/06 00:20:16;;;;;;;;;;;23.30;56.70;;;;;;1562498;75;1498;-69
2023/05/06 00:22:17;;;;;;;;;;;23.20;56.30;;;;;;1561228;75;717;-69
2023/05/06 00:24:19;;;;;;;;;;;23.30;56.50;;;;;;1562572;76;788;-69
2023/05/06 00:26:21;;;;;;;;;;;23.30;56.50;;;;;;1562186;75;1172;-69
2023/05/06 00:28:23;;;;;;;;;;;23.30;56.70;;;;;;1562796;76;752;-68
2023/05/06 00:30:25;;;;;;;;;;;23.20;56.60;;;;;;1563588;75;705;-67
2023/05/06 00:32:27;;;;;;;;;;;23.30;56.60;;;;;;1563900;75;1962;-67
2023/05/06 00:34:29;;;;;;;;;;;23.30;56.50;;;;;;1564180;75;1464;-68
2023/05/06 00:36:31;;;;;;;;;;;23.30;56.50;;;;;;1560103;75;1127;-69
2023/05/06 00:38:33;;;;;;;;;;;23.30;56.70;;;;;;1563297;76;779;-69
2023/05/06 00:40:35;;;;;;;;;;;23.30;56.50;;;;;;1563844;76;746;-68
2023/05/06 00:42:37;;;;;;;;;;;23.20;56.80;;;;;;1563670;75;746;-70
2023/05/06 00:44:38;;;;;;;;;;;23.20;56.80;;;;;;1569209;75;797;-69
2023/05/06 00:46:41;;;;;;;;;;;23.30;56.60;;;;;;1566040;75;1167;-68
2023/05/06 00:48:44;;;;;;;;;;;23.20;56.70;;;;;;1564008;75;1501;-68
2023/05/06 00:50:46;;;;;;;;;;;23.30;56.50;;;;;;1566810;75;695;-69
2023/05/06 00:52:48;;;;;;;;;;;23.30;56.50;;;;;;1565775;75;1946;-69
2023/05/06 00:54:50;;;;;;;;;;;23.30;56.50;;;;;;1562011;75;676;-68
2023/05/06 00:56:52;;;;;;;;;;;23.20;56.60;;;;;;1563395;75;1113;-69
2023/05/06 00:58:54;;;;;;;;;;;23.20;56.80;;;;;;1563498;75;797;-69
2023/05/06 01:00:56;;;;;;;;;;;23.20;56.90;;;;;;1562429;75;738;-70
2023/05/06 01:02:57;;;;;;;;;;;23.20;56.80;;;;;;1561966;76;1519;-69
2023/05/06 01:04:59;;;;;;;;;;;23.20;56.90;;;;;;1562642;75;770;-70
2023/05/06 01:07:03;;;;;;;;;;;23.20;57.00;;;;;;1563441;76;1040;-69
2023/05/06 01:09:06;;;;;;;;;;;23.20;56.90;;;;;;1563492;76;718;-69
2023/05/06 01:11:13;;;;;;;;;;;23.30;56.80;;;;;;1563765;76;1820;-69
2023/05/06 01:13:20;;;;;;;;;;;23.20;56.80;;;;;;1570630;75;1932;-69
2023/05/06 01:15:23;;;;;;;;;;;23.20;57.00;;;;;;1563832;75;1135;-70
2023/05/06 01:17:27;;;;;;;;;;;23.20;56.80;;;;;;1568007;75;1834;-70
2023/05/06 01:19:40;;;;;;;;;;;23.30;56.80;;;;;;1563198;75;705;-70
2023/05/06 01:21:42;;;;;;;;;;;23.20;56.80;;;;;;1561116;75;707;-69
2023/05/06 01:23:52;;;;;;;;;;;23.20;56.80;;;;;;1562817;76;724;-70
2023/05/06 01:25:53;;;;;;;;;;;23.20;56.80;;;;;;1563216;75;1350;-68
2023/05/06 01:27:55;;;;;;;;;;;23.20;56.90;;;;;;1563637;75;857;-70
2023/05/06 01:29:57;;;;;;;;;;;23.30;57.00;;;;;;1550349;75;1426;-70
2023/05/06 01:32:01;;;;;;;;;;;23.20;56.80;;;;;;1562897;75;790;-70
2023/05/06 01:34:07;;;;;;;;;;;23.20;57.10;;;;;;1561374;75;1928;-70
2023/05/06 01:36:16;;;;;;;;;;;23.10;57.10;;;;;;1562499;75;1842;-70
2023/05/06 01:38:25;;;;;;;;;;;23.10;57.10;;;;;;1563885;75;724;-71
2023/05/06 01:40:29;;;;;;;;;;;23.10;57.00;;;;;;1563008;75;1575;-68
2023/05/06 01:42:30;;;;;;;;;;;23.10;57.20;;;;;;1558600;75;701;-70
2023/05/06 01:44:33;;;;;;;;;;;23.10;57.20;;;;;;1564203;75;1452;-70
2023/05/06 01:46:35;;;;;;;;;;;23.10;57.10;;;;;;1561993;75;1160;-70
2023/05/06 01:48:36;;;;;;;;;;;23.10;57.10;;;;;;1560327;75;672;-70
2023/05/06 01:50:38;;;;;;;;;;;23.10;57.10;;;;;;1562859;75;724;-70
2023/05/06 01:52:40;;;;;;;;;;;23.10;57.20;;;;;;1564029;75;1932;-69
2023/05/06 01:54:42;;;;;;;;;;;23.10;57.30;;;;;;1563973;75;777;-69
2023/05/06 01:56:44;;;;;;;;;;;23.10;57.10;;;;;;1563440;75;1152;-68
2023/05/06 01:58:46;;;;;;;;;;;23.10;57.00;;;;;;1563832;75;1622;-69
2023/05/06 02:00:48;;;;;;;;;;;23.10;57.30;;;;;;1563481;75;756;-69
2023/05/06 02:02:50;;;;;;;;;;;23.10;57.70;;;;;;1563048;75;677;-69
2023/05/06 02:04:52;;;;;;;;;;;23.10;57.40;;;;;;1561349;76;803;-69
2023/05/06 02:06:54;;;;;;;;;;;23.10;57.30;;;;;;1562591;75;1107;-69
2023/05/06 02:08:55;;;;;;;;;;;23.10;57.20;;;;;;1561499;75;770;-69
2023/05/06 02:10:57;;;;;;;;;;;23.20;57.00;;;;;;1560871;75;731;-69
2023/05/06 02:13:00;;;;;;;;;;;23.10;57.10;;;;;;1563601;76;1905;-70
2023/05/06 02:15:02;;;;;;;;;;;23.10;57.10;;;;;;1566696;75;781;-70
2023/05/06 02:17:04;;;;;;;;;;;23.10;57.00;;;;;;1562326;75;1141;-71
2023/05/06 02:19:06;;;;;;;;;;;23.10;57.30;;;;;;1563041;76;741;-69
2023/05/06 02:21:09;;;;;;;;;;;23.00;57.10;;;;;;1559973;76;758;-69
2023/05/06 02:23:12;;;;;;;;;;;23.10;57.40;;;;;;1563745;75;771;-71
2023/05/06 02:25:13;;;;;;;;;;;23.10;57.30;;;;;;1561445;75;1164;-70
2023/05/06 02:27:15;;;;;;;;;;;23.10;57.50;;;;;;1563604;75;1472;-69
2023/05/06 02:29:17;;;;;;;;;;;23.00;57.10;;;;;;1564036;75;768;-68
2023/05/06 02:31:19;;;;;;;;;;;23.00;57.30;;;;;;1563938;76;697;-69
2023/05/06 02:33:21;;;;;;;;;;;23.00;57.40;;;;;;1562708;76;1924;-69
2023/05/06 02:35:23;;;;;;;;;;;23.00;57.50;;;;;;1559470;75;1134;-69
2023/05/06 02:37:25;;;;;;;;;;;23.00;57.50;;;;;;1563482;75;750;-69
2023/05/06 02:39:27;;;;;;;;;;;23.00;57.50;;;;;;1563126;75;711;-68
2023/05/06 02:41:29;;;;;;;;;;;23.00;57.70;;;;;;1563088;75;1360;-68
2023/05/06 02:43:31;;;;;;;;;;;23.00;57.80;;;;;;1564111;75;700;-69
2023/05/06 02:45:33;;;;;;;;;;;23.00;57.80;;;;;;1571592;75;1182;-69
2023/05/06 02:47:35;;;;;;;;;;;22.90;57.80;;;;;;1560746;76;780;-70
2023/05/06 02:49:37;;;;;;;;;;;22.90;57.80;;;;;;1563487;75;778;-69
2023/05/06 02:51:39;;;;;;;;;;;23.00;57.60;;;;;;1562032;76;763;-70
2023/05/06 02:53:41;;;;;;;;;;;23.10;57.50;;;;;;1563562;76;1933;-71
2023/05/06 02:55:43;;;;;;;;;;;23.10;57.60;;;;;;1563324;75;1592;-70
2023/05/06 02:57:44;;;;;;;;;;;23.10;57.60;;;;;;1561191;76;678;-69
2023/05/06 02:59:46;;;;;;;;;;;23.10;57.40;;;;;;1568451;75;789;-69
2023/05/06 03:01:48;;;;;;;;;;;23.10;57.40;;;;;;1576756;75;719;-69
2023/05/06 03:03:50;;;;;;;;;;;23.10;57.30;;;;;;1565078;75;776;-69
2023/05/06 03:05:52;;;;;;;;;;;23.10;57.40;;;;;;1573005;75;1136;-69
2023/05/06 03:07:55;;;;;;;;;;;23.10;57.30;;;;;;1572586;75;1201;-70
2023/05/06 03:09:56;;;;;;;;;;;23.10;57.30;;;;;;1569463;75;781;-68
2023/05/06 03:11:58;;;;;;;;;;;23.10;57.40;;;;;;1563998;75;718;-69
2023/05/06 03:14:00;;;;;;;;;;;23.10;57.20;;;;;;1564018;75;1917;-69
2023/05/06 03:16:02;;;;;;;;;;;23.10;57.30;;;;;;1563418;75;1160;-70
2023/05/06 03:18:04;;;;;;;;;;;23.10;57.40;;;;;;1563477;76;727;-69
2023/05/06 03:20:07;;;;;;;;;;;23.10;57.70;;;;;;1563609;75;859;-70
2023/05/06 03:22:09;;;;;;;;;;;23.10;57.50;;;;;;1560492;75;1464;-69
2023/05/06 03:24:11;;;;;;;;;;;23.10;57.60;;;;;;1566262;75;735;-70
2023/05/06 03:26:13;;;;;;;;;;;23.00;57.50;;;;;;1561864;76;1154;-70
2023/05/06 03:28:15;;;;;;;;;;;23.10;57.30;;;;;;1561882;76;769;-70
2023/05/06 03:30:17;;;;;;;;;;;23.10;57.40;;;;;;1567654;75;742;-69
2023/05/06 03:32:19;;;;;;;;;;;23.10;57.30;;;;;;1562020;75;727;-71
2023/05/06 03:34:21;;;;;;;;;;;23.10;57.30;;;;;;1565464;75;1914;-68
2023/05/06 03:36:24;;;;;;;;;;;23.10;57.20;;;;;;1571201;75;1469;-69
2023/05/06 03:38:26;;;;;;;;;;;23.10;57.30;;;;;;1560465;76;796;-68
2023/05/06 03:40:28;;;;;;;;;;;23.20;57.10;;;;;;1562836;76;778;-69
2023/05/06 03:42:30;;;;;;;;;;;23.20;57.40;;;;;;1562925;76;723;-68
2023/05/06 03:44:32;;;;;;;;;;;23.10;57.60;;;;;;1562003;76;849;-69
2023/05/06 03:46:34;;;;;;;;;;;23.10;57.60;;;;;;1561418;75;1113;-69
2023/05/06 03:48:36;;;;;;;;;;;23.10;57.80;;;;;;1563150;75;778;-69
2023/05/06 03:50:38;;;;;;;;;;;23.10;57.50;;;;;;1562160;75;1504;-69
2023/05/06 03:52:39;;;;;;;;;;;23.00;57.40;;;;;;1562052;76;706;-73
2023/05/06 03:54:41;;;;;;;;;;;23.10;57.30;;;;;;1562146;76;1928;-71
2023/05/06 03:56:43;;;;;;;;;;;23.10;57.20;;;;;;1568313;75;1137;-69
2023/05/06 03:58:45;;;;;;;;;;;23.10;57.30;;;;;;1562644;76;726;-69
2023/05/06 04:00:47;;;;;;;;;;;23.10;57.20;;;;;;1564177;75;810;-69
2023/05/06 04:02:49;;;;;;;;;;;23.10;57.20;;;;;;1561220;75;780;-66
2023/05/06 04:04:51;;;;;;;;;;;23.10;57.10;;;;;;1563734;75;1437;-66
2023/05/06 04:06:53;;;;;;;;;;;23.10;57.10;;;;;;1562904;75;1109;-66
2023/05/06 04:08:55;;;;;;;;;;;23.10;56.90;;;;;;1563011;76;780;-67
2023/05/06 04:10:56;;;;;;;;;;;23.20;57.10;;;;;;1563984;75;696;-67
2023/05/06 04:12:58;;;;;;;;;;;23.10;57.00;;;;;;1564089;76;707;-68
2023/05/06 04:15:00;;;;;;;;;;;23.10;57.00;;;;;;1563353;75;1928;-69
2023/05/06 04:17:02;;;;;;;;;;;23.20;57.10;;;;;;1586486;72;2117;-70
2023/05/06 04:19:04;;;;;;;;;;;23.20;57.00;;;;;;1597938;73;1515;-70
2023/05/06 04:21:06;;;;;;;;;;;23.20;57.00;;;;;;1594894;73;735;-69
2023/05/06 04:23:08;;;;;;;;;;;23.20;57.00;;;;;;1597379;73;862;-70
2023/05/06 04:25:10;;;;;;;;;;;23.20;57.00;;;;;;1585069;74;766;-69
2023/05/06 04:27:12;;;;;;;;;;;23.20;56.80;;;;;;1585817;73;1205;-69
2023/05/06 04:29:14;;;;;;;;;;;23.20;56.80;;;;;;1574952;75;785;-70
2023/05/06 04:31:16;;;;;;;;;;;23.20;56.80;;;;;;1569463;75;764;-70
2023/05/06 04:33:18;;;;;;;;;;;23.20;56.70;;;;;;1571484;75;1557;-69
2023/05/06 04:35:20;;;;;;;;;;;23.20;56.70;;;;;;1577237;75;1887;-70
2023/05/06 04:37:22;;;;;;;;;;;23.20;56.80;;;;;;1581622;75;1072;-72
2023/05/06 04:39:24;;;;;;;;;;;23.20;56.80;;;;;;1577199;73;725;-69
2023/05/06 04:41:29;;;;;;;;;;;23.20;56.80;;;;;;1581200;75;779;-71
2023/05/06 04:43:30;;;;;;;;;;;23.20;56.80;;;;;;1552237;75;1670;-70
2023/05/06 04:45:33;;;;;;;;;;;23.20;56.70;;;;;;1574725;75;1179;-70
2023/05/06 04:47:35;;;;;;;;;;;23.20;56.80;;;;;;1542747;75;1542;-70
2023/05/06 04:49:37;;;;;;;;;;;23.20;57.00;;;;;;1545213;75;752;-65
2023/05/06 04:51:38;;;;;;;;;;;23.10;57.60;;;;;;1568119;74;1012;-68
2023/05/06 04:53:40;;;;;;;;;;;23.00;57.60;;;;;;1568384;75;1946;-67
2023/05/06 04:55:42;;;;;;;;;;;23.00;58.20;;;;;;1574560;74;1177;-67
2023/05/06 04:57:44;;;;;;;;;;;23.00;58.30;;;;;;1595499;73;800;-67
2023/05/06 04:59:46;;;;;;;;;;;23.00;58.50;;;;;;1577063;74;740;-66
2023/05/06 05:01:48;;;;;;;;;;;23.00;58.30;;;;;;1576025;75;1569;-69
2023/05/06 05:03:50;;;;;;;;;;;23.00;58.20;;;;;;1571328;74;800;-65
2023/05/06 05:05:51;;;;;;;;;;;23.00;58.00;;;;;;1592875;73;1132;-68
2023/05/06 05:07:54;;;;;;;;;;;23.00;57.90;;;;;;1593933;73;919;-67
2023/05/06 05:09:56;;;;;;;;;;;23.00;57.90;;;;;;1557190;75;818;-69
2023/05/06 05:11:57;;;;;;;;;;;23.00;57.90;;;;;;1584509;74;671;-66
2023/05/06 05:13:59;;;;;;;;;;;23.00;58.10;;;;;;1573798;73;1957;-67
2023/05/06 05:16:01;;;;;;;;;;;23.00;58.00;;;;;;1580004;73;1703;-67
2023/05/06 05:18:03;;;;;;;;;;;23.00;58.00;;;;;;1573102;73;755;-67
2023/05/06 05:20:06;;;;;;;;;;;23.00;58.20;;;;;;1576512;75;694;-70
2023/05/06 05:22:08;;;;;;;;;;;23.00;58.10;;;;;;1575839;75;685;-66
2023/05/06 05:24:09;;;;;;;;;;;23.00;57.80;;;;;;1576292;73;781;-71
2023/05/06 05:26:11;;;;;;;;;;;23.10;58.00;;;;;;1558636;75;1180;-68
2023/05/06 05:28:13;;;;;;;;;;;23.10;57.90;;;;;;1583114;74;731;-68
2023/05/06 05:30:15;;;;;;;;;;;23.10;57.90;;;;;;1574239;75;1532;-67
2023/05/06 05:32:18;;;;;;;;;;;23.10;57.80;;;;;;1582130;73;792;-68
2023/05/06 05:34:20;;;;;;;;;;;23.00;57.80;;;;;;1588624;73;1902;-69
2023/05/06 05:36:22;;;;;;;;;;;23.10;57.80;;;;;;1587350;73;1089;-68
2023/05/06 05:38:24;;;;;;;;;;;23.10;57.60;;;;;;1590969;73;793;-68
2023/05/06 05:40:26;;;;;;;;;;;23.10;57.30;;;;;;1588126;73;702;-67
2023/05/06 05:42:32;;;;;;;;;;;23.10;57.10;;;;;;1581315;73;764;-68
2023/05/06 05:44:32;;;;;;;;;;;23.20;56.80;;;;;;1584521;73;2006;-68
2023/05/06 05:46:34;;;;;;;;;;;23.20;56.60;;;;;;1583912;73;1139;-67
2023/05/06 05:48:38;;;;;;;;;;;23.20;56.50;;;;;;1549065;75;663;-68
2023/05/06 05:50:39;;;;;;;;;;;23.20;56.30;;;;;;1553980;75;1672;-67
2023/05/06 05:52:41;;;;;;;;;;;23.20;56.10;;;;;;1588377;73;776;-73
2023/05/06 05:54:43;;;;;;;;;;;23.20;56.00;;;;;;1561187;75;1913;-71
2023/05/06 05:56:45;;;;;;;;;;;23.20;56.00;;;;;;1555391;74;1473;-71
2023/05/06 05:58:47;;;;;;;;;;;23.10;56.00;;;;;;1556907;75;1297;-73
2023/05/06 06:00:49;;;;;;;;;;;23.20;55.90;;;;;;1576068;74;1365;-71
2023/05/06 06:02:50;;;;;;;;;;;23.20;55.90;;;;;;1560342;75;1295;-71
2023/05/06 06:04:52;;;;;;;;;;;23.10;55.90;;;;;;1574688;74;1266;-66
2023/05/06 06:07:00;;;;;;;;;;;23.20;55.90;;;;;;1571999;74;1559;-66
2023/05/06 06:08:59;;;;;;;;;;;23.10;55.70;;;;;;1584060;73;1591;-66
2023/05/06 06:11:04;;;;;;;;;;;23.10;55.80;;;;;;1578813;73;1480;-66
2023/05/06 06:13:06;;;;;;;;;;;23.10;55.80;;;;;;1584363;73;1134;-66
2023/05/06 06:15:08;;;;;;;;;;;23.10;55.80;;;;;;1579782;74;1951;-66
2023/05/06 06:17:10;;;;;;;;;;;23.00;55.70;;;;;;1585190;73;1259;-66
2023/05/06 06:19:13;;;;;;;;;;;23.00;55.80;;;;;;1584986;75;1424;-67
2023/05/06 06:21:15;;;;;;;;;;;23.00;55.80;;;;;;1583033;73;1317;-66
2023/05/06 06:23:17;;;;;;;;;;;23.00;55.90;;;;;;1574786;73;1322;-66
2023/05/06 06:25:20;;;;;;;;;;;23.00;56.10;;;;;;1572763;74;1486;-66
2023/05/06 06:27:22;;;;;;;;;;;23.00;56.10;;;;;;1551110;75;1350;-68
2023/05/06 06:29:24;;;;;;;;;;;23.00;56.30;;;;;;1554201;75;1327;-66
2023/05/06 06:31:28;;;;;;;;;;;22.90;56.50;;;;;;1580343;73;1336;-65
2023/05/06 06:33:30;;;;;;;;;;;23.00;56.60;;;;;;1551846;75;1329;-67
2023/05/06 06:35:31;;;;;;;;;;;22.90;56.70;;;;;;1559509;75;1947;-69
2023/05/06 06:37:33;;;;;;;;;;;22.90;56.70;;;;;;1572342;75;1356;-71
2023/05/06 06:39:35;;;;;;;;;;;23.00;56.50;;;;;;1574935;74;1572;-70
2023/05/06 06:41:37;;;;;;;;;;;22.90;56.20;;;;;;1568419;74;1202;-69
2023/05/06 06:43:39;;;;;;;;;;;23.00;55.90;;;;;;1562521;75;1082;-69
2023/05/06 06:45:41;;;;;;;;;;;22.90;55.60;;;;;;1555681;75;1292;-69
2023/05/06 06:47:43;;;;;;;;;;;23.00;55.30;;;;;;1580915;73;1064;-70
2023/05/06 06:49:45;;;;;;;;;;;23.00;55.10;;;;;;1558989;76;1567;-70
2023/05/06 06:51:46;;;;;;;;;;;23.00;54.90;;;;;;1576651;75;1348;-69
2023/05/06 06:53:49;;;;;;;;;;;23.10;54.80;;;;;;1571508;74;1448;-72
2023/05/06 06:55:51;;;;;;;;;;;23.10;54.70;;;;;;1572015;74;1912;-70
2023/05/06 06:57:53;;;;;;;;;;;23.00;54.30;;;;;;1572808;75;1337;-71
2023/05/06 06:59:55;;;;;;;;;;;23.10;54.40;;;;;;1551595;75;1379;-70
2023/05/06 07:01:57;;;;;;;;;;;23.10;54.20;;;;;;1558848;75;1352;-69
2023/05/06 07:03:58;;;;;;;;;;;23.00;53.90;;;;;;1578592;74;1325;-70
2023/05/06 07:06:00;;;;;;;;;;;23.00;53.90;;;;;;1573819;74;1298;-70
2023/05/06 07:08:02;;;;;;;;;;;23.10;53.90;;;;;;1560424;74;1539;-69
2023/05/06 07:10:04;;;;;;;;;;;23.00;53.70;;;;;;1572184;74;1331;-69
2023/05/06 07:12:06;;;;;;;;;;;23.00;53.60;;;;;;1582869;75;1527;-70
2023/05/06 07:14:08;;;;;;;;;;;23.00;53.60;;;;;;1545902;75;1253;-70
2023/05/06 07:16:10;;;;;;;;;;;23.10;53.60;;;;;;1548386;75;1939;-73
2023/05/06 07:18:12;;;;;;;;;;;23.00;53.50;;;;;;1583491;73;1248;-73
2023/05/06 07:20:15;;;;;;;;;;;23.00;53.40;;;;;;1580319;75;1078;-67
2023/05/06 07:22:16;;;;;;;;;;;23.00;53.40;;;;;;1584036;74;1504;-68
2023/05/06 07:24:18;;;;;;;;;;;22.90;53.90;;;;;;1559385;75;1344;-67
2023/05/06 07:26:20;;;;;;;;;;;22.90;54.10;;;;;;1573530;74;1331;-69
2023/05/06 07:28:22;;;;;;;;;;;22.90;54.40;;;;;;1575189;75;1382;-68
2023/05/06 07:30:24;;;;;;;;;;;22.90;54.30;;;;;;1570438;75;1321;-68
2023/05/06 07:32:26;;;;;;;;;;;22.80;54.20;;;;;;1570293;74;1180;-68
2023/05/06 07:34:28;;;;;;;;;;;22.90;54.20;;;;;;1566980;74;1355;-68
2023/05/06 07:36:34;;;;;;;;;;;22.90;54.20;;;;;;1572140;74;1922;-68
2023/05/06 07:38:34;;;;;;;;;;;22.80;54.00;;;;;;1584393;73;1716;-68
2023/05/06 07:40:36;;;;;;;;;;;22.90;54.10;;;;;;1554019;75;1287;-67
2023/05/06 07:42:37;;;;;;;;;;;22.90;54.10;;;;;;1581483;73;1253;-67
2023/05/06 07:44:39;;;;;;;;;;;22.80;54.10;;;;;;1577801;74;1490;-66
2023/05/06 07:46:41;;;;;;;;;;;22.80;54.00;;;;;;1558384;75;1247;-68
2023/05/06 07:48:43;;;;;;;;;;;22.80;53.90;;;;;;1583784;74;1304;-68
2023/05/06 07:50:45;;;;;;;;;;;22.90;54.00;;;;;;1555715;75;1490;-68
2023/05/06 07:52:47;;;;;;;;;;;22.80;53.70;;;;;;1571533;74;1323;-68
2023/05/06 07:54:49;;;;;;;;;;;22.80;53.60;;;;;;1573514;74;1942;-68
2023/05/06 07:56:50;;;;;;;;;;;22.90;53.70;;;;;;1558706;75;1180;-68
2023/05/06 07:58:52;;;;;;;;;;;22.90;53.60;;;;;;1581150;73;1338;-68
2023/05/06 08:00:54;;;;;;;;;;;22.90;53.60;;;;;;1578364;74;1321;-68
2023/05/06 08:02:56;;;;;;;;;;;22.90;53.50;;;;;;1560526;75;1140;-66
2023/05/06 08:04:59;;;;;;;;;;;22.90;53.50;;;;;;1588886;73;1687;-68
2023/05/06 08:07:00;;;;;;;;;;;22.90;53.40;;;;;;1572104;74;1381;-68
2023/05/06 08:09:02;;;;;;;;;;;22.90;53.40;;;;;;1550698;75;1324;-68
2023/05/06 08:11:04;;;;;;;;;;;22.90;53.30;;;;;;1575260;74;1377;-68
2023/05/06 08:13:06;;;;;;;;;;;23.00;53.30;;;;;;1586035;74;1366;-68
2023/05/06 08:15:08;;;;;;;;;;;22.90;53.30;;;;;;1586020;73;1918;-68
2023/05/06 08:17:10;;;;;;;;;;;22.90;53.20;;;;;;1581403;74;1391;-68
2023/05/06 08:19:12;;;;;;;;;;;22.90;53.10;;;;;;1584943;74;1721;-68
2023/05/06 08:21:14;;;;;;;;;;;23.00;53.20;;;;;;1583221;73;1206;-68
2023/05/06 08:23:16;;;;;;;;;;;22.90;53.10;;;;;;1582165;73;1291;-67
2023/05/06 08:25:18;;;;;;;;;;;23.00;53.10;;;;;;1585235;73;1252;-68
2023/05/06 08:27:20;;;;;;;;;;;23.00;53.00;;;;;;1584658;73;1126;-67
2023/05/06 08:29:22;;;;;;;;;;;22.90;52.90;;;;;;1583472;73;1366;-66
2023/05/06 08:31:24;;;;;;;;;;;23.00;52.90;;;;;;1580077;73;1560;-65
2023/05/06 08:33:26;;;;;;;;;;;23.00;52.90;;;;;;1579022;73;1246;-68
2023/05/06 08:35:27;;;;;;;;;;;23.00;53.10;;;;;;1586271;73;1921;-69
2023/05/06 08:37:29;;;;;;;;;;;22.90;53.40;;;;;;1583533;73;1149;-69
2023/05/06 08:39:31;;;;;;;;;;;22.90;53.40;;;;;;1586864;73;751;-73
2023/05/06 08:41:34;;;;;;;;;;;22.90;53.40;;;;;;1564413;74;692;-69
2023/05/06 08:43:37;;;;;;;;;;;22.90;53.50;;;;;;1564600;75;1075;-71
2023/05/06 08:45:40;;;;;;;;;;;22.90;53.60;;;;;;1566320;75;1653;-70
2023/05/06 08:47:42;;;;;;;;;;;22.90;53.60;;;;;;1582351;73;689;-70
2023/05/06 08:49:44;;;;;;;;;;;22.90;53.70;;;;;;1573995;73;950;-75
2023/05/06 08:51:46;;;;;;;;;;;22.90;53.80;;;;;;1581708;73;742;-73
2023/05/06 08:53:48;;;;;;;;;;;22.90;53.70;;;;;;1594268;73;1076;-70
2023/05/06 08:55:50;;;;;;;;;;;22.90;53.70;;;;;;1572772;74;1924;-70
2023/05/06 08:57:52;;;;;;;;;;;22.80;53.60;;;;;;1569893;75;780;-71
2023/05/06 08:59:54;;;;;;;;;;;22.90;53.80;;;;;;1578893;73;1516;-71
2023/05/06 09:01:56;;;;;;;;;;;22.90;53.80;;;;;;1591152;73;750;-69
2023/05/06 09:03:57;;;;;;;;;;;22.90;53.90;;;;;;1550776;75;717;-71
2023/05/06 09:05:59;;;;;;;;;;;22.90;53.90;;;;;;1573375;75;1187;-70
2023/05/06 09:08:01;;;;;;;;;;;22.80;53.80;;;;;;1555422;74;706;-70
2023/05/06 09:10:06;;;;;;;;;;;22.80;53.80;;;;;;1544929;75;781;-70
2023/05/06 09:12:12;;;;;;;;;;;22.90;53.90;;;;;;1534039;75;772;-69
2023/05/06 09:14:15;;;;;;;;;;;22.90;54.00;;;;;;1554974;75;1570;-72
2023/05/06 09:16:27;;;;;;;;;;;22.90;54.00;;;;;;1557126;75;1910;-69
2023/05/06 09:18:28;;;;;;;;;;;22.90;54.10;;;;;;1554842;75;775;-70
2023/05/06 09:20:32;;;;;;;;;;;22.90;54.00;;;;;;1555212;76;763;-69
2023/05/06 09:22:36;;;;;;;;;;;22.80;53.90;;;;;;1543896;75;824;-69
2023/05/06 09:24:38;;;;;;;;;;;22.90;54.00;;;;;;1562652;75;616;-71
2023/05/06 09:26:40;;;;;;;;;;;22.90;54.00;;;;;;1577024;73;1182;-71
2023/05/06 09:28:44;;;;;;;;;;;22.90;54.10;;;;;;1542153;75;1553;-71
2023/05/06 09:30:46;;;;;;;;;;;22.90;54.10;;;;;;1557346;75;752;-70
2023/05/06 09:32:48;;;;;;;;;;;22.90;54.00;;;;;;1572884;75;786;-70
2023/05/06 09:34:50;;;;;;;;;;;23.00;54.10;;;;;;1577171;75;837;-70
2023/05/06 09:36:52;;;;;;;;;;;23.00;53.90;;;;;;1578490;74;1935;-70
2023/05/06 09:38:55;;;;;;;;;;;23.00;53.90;;;;;;1578151;74;972;-69
2023/05/06 09:40:56;;;;;;;;;;;23.00;53.90;;;;;;1579912;74;728;-69
2023/05/06 09:42:59;;;;;;;;;;;23.00;53.90;;;;;;1574332;74;1533;-70
2023/05/06 09:45:01;;;;;;;;;;;23.00;53.90;;;;;;1578537;74;822;-69
2023/05/06 09:47:03;;;;;;;;;;;22.90;53.90;;;;;;1559127;75;1131;-70
2023/05/06 09:49:04;;;;;;;;;;;23.00;53.90;;;;;;1558427;75;717;-70
2023/05/06 09:51:06;;;;;;;;;;;23.00;53.90;;;;;;1532717;76;804;-69
2023/05/06 09:53:08;;;;;;;;;;;22.90;53.90;;;;;;1586501;73;805;-68
2023/05/06 09:55:10;;;;;;;;;;;23.00;53.90;;;;;;1566030;75;709;-71
2023/05/06 09:57:14;;;;;;;;;;;22.90;53.90;;;;;;1584199;73;1924;-69
2023/05/06 09:59:17;;;;;;;;;;;22.90;53.90;;;;;;1586972;73;741;-70
2023/05/06 10:01:19;;;;;;;;;;;23.00;53.90;;;;;;1586151;73;804;-70
2023/05/06 10:03:21;;;;;;;;;;;23.00;53.90;;;;;;1578396;75;740;-70
2023/05/06 10:05:23;;;;;;;;;;;23.00;53.90;;;;;;1577875;74;774;-69
2023/05/06 10:07:27;;;;;;;;;;;23.00;53.80;;;;;;1588752;73;1129;-69
2023/05/06 10:09:28;;;;;;;;;;;23.00;53.80;;;;;;1551543;75;1648;-70
2023/05/06 10:11:30;;;;;;;;;;;23.00;53.70;;;;;;1576791;75;1703;-69
2023/05/06 10:13:32;;;;;;;;;;;23.00;53.70;;;;;;1567095;75;705;-70
2023/05/06 10:15:34;;;;;;;;;;;23.00;53.80;;;;;;1573872;73;1931;-70
2023/05/06 10:17:55;;;;;;;;;;;23.00;53.80;;;;;;1565904;75;790;-69
2023/05/06 10:19:59;;;;;;;;;;;23.00;53.90;;;;;;1565834;74;704;-69
2023/05/06 10:22:02;;;;;;;;;;;23.00;53.80;;;;;;1584719;73;1673;-70
2023/05/06 10:24:06;;;;;;;;;;;23.00;53.80;;;;;;1579706;73;1524;-71
2023/05/06 10:26:09;;;;;;;;;;;23.00;53.80;;;;;;1582274;73;1138;-70
2023/05/06 10:28:11;;;;;;;;;;;23.10;53.90;;;;;;1566113;74;685;-70
2023/05/06 10:30:13;;;;;;;;;;;23.00;53.60;;;;;;1572149;74;782;-70
2023/05/06 10:32:15;;;;;;;;;;;23.10;53.70;;;;;;1572977;74;790;-70
2023/05/06 10:34:17;;;;;;;;;;;23.10;53.70;;;;;;1567809;74;807;-71
2023/05/06 10:36:24;;;;;;;;;;;23.00;53.60;;;;;;1569678;73;1938;-72
2023/05/06 10:38:42;;;;;;;;;;;23.00;53.60;;;;;;1568796;74;1539;-70
2023/05/06 10:40:44;;;;;;;;;;;23.00;53.60;;;;;;1569460;74;728;-71
2023/05/06 10:42:46;;;;;;;;;;;23.00;53.60;;;;;;1567280;74;767;-69
2023/05/06 10:45:00;;;;;;;;;;;23.00;53.60;;;;;;1565106;74;823;-69
2023/05/06 10:47:04;;;;;;;;;;;23.00;53.70;;;;;;1562722;74;1144;-70
2023/05/06 10:49:10;;;;;;;;;;;23.10;53.80;;;;;;1565137;74;1672;-70
2023/05/06 10:51:17;;;;;;;;;;;23.00;53.60;;;;;;1567593;74;1748;-69
2023/05/06 10:53:20;;;;;;;;;;;23.00;53.60;;;;;;1570059;74;1530;-71
2023/05/06 10:55:36;;;;;;;;;;;23.00;53.60;;;;;;1571505;74;1628;-70
2023/05/06 10:57:41;;;;;;;;;;;23.00;53.50;;;;;;1562936;74;1905;-68
2023/05/06 10:59:47;;;;;;;;;;;23.00;53.50;;;;;;1561462;75;803;-70
2023/05/06 11:01:56;;;;;;;;;;;23.10;53.60;;;;;;1579372;74;969;-70
2023/05/06 11:03:59;;;;;;;;;;;23.10;53.60;;;;;;1566458;74;781;-70
2023/05/06 11:06:01;;;;;;;;;;;23.00;53.50;;;;;;1536967;76;1592;-70
2023/05/06 11:08:09;;;;;;;;;;;23.00;53.50;;;;;;1573043;74;788;-69
2023/05/06 11:10:11;;;;;;;;;;;23.00;53.60;;;;;;1560692;74;778;-69
2023/05/06 11:12:13;;;;;;;;;;;23.10;53.60;;;;;;1566588;74;683;-70
2023/05/06 11:14:15;;;;;;;;;;;23.00;53.50;;;;;;1557218;74;705;-70
2023/05/06 11:16:19;;;;;;;;;;;23.00;53.40;;;;;;1527343;75;1917;-69
2023/05/06 11:18:26;;;;;;;;;;;23.00;53.50;;;;;;1556641;75;1467;-70
2023/05/06 11:20:29;;;;;;;;;;;23.10;53.60;;;;;;1555195;75;1496;-70
2023/05/06 11:22:40;;;;;;;;;;;23.00;53.50;;;;;;1550369;75;771;-71
2023/05/06 11:24:42;;;;;;;;;;;23.00;53.50;;;;;;1543279;75;701;-71
2023/05/06 11:26:44;;;;;;;;;;;23.10;53.60;;;;;;1543206;75;1147;-68
2023/05/06 11:28:47;;;;;;;;;;;23.00;53.50;;;;;;1554323;75;742;-70
2023/05/06 11:30:51;;;;;;;;;;;23.00;53.50;;;;;;1539901;75;1125;-68
2023/05/06 11:32:53;;;;;;;;;;;23.00;53.50;;;;;;1542523;75;1823;-70
2023/05/06 11:34:56;;;;;;;;;;;23.00;53.50;;;;;;1540722;76;1511;-70
2023/05/06 11:37:01;;;;;;;;;;;23.00;53.50;;;;;;1545796;75;1939;-70
2023/05/06 11:39:09;;;;;;;;;;;23.00;53.50;;;;;;1547604;76;710;-69
2023/05/06 11:41:11;;;;;;;;;;;23.00;53.50;;;;;;1537355;75;773;-71
2023/05/06 11:43:13;;;;;;;;;;;23.00;53.50;;;;;;1553969;75;739;-69
2023/05/06 11:45:15;;;;;;;;;;;23.00;53.50;;;;;;1542272;75;729;-70
2023/05/06 11:47:19;;;;;;;;;;;23.00;53.50;;;;;;1543221;75;1099;-69
2023/05/06 11:49:21;;;;;;;;;;;23.00;53.50;;;;;;1537988;75;1593;-69
2023/05/06 11:51:23;;;;;;;;;;;23.10;53.50;;;;;;1540968;76;800;-70
2023/05/06 11:53:25;;;;;;;;;;;23.10;53.60;;;;;;1572567;74;798;-69
2023/05/06 11:55:27;;;;;;;;;;;23.10;53.60;;;;;;1567567;74;780;-70
2023/05/06 11:57:30;;;;;;;;;;;23.00;53.40;;;;;;1562059;75;1957;-69
2023/05/06 11:59:32;;;;;;;;;;;23.00;53.40;;;;;;1550451;74;747;-69
2023/05/06 12:01:34;;;;;;;;;;;23.00;53.50;;;;;;1551905;75;756;-70
2023/05/06 12:03:36;;;;;;;;;;;23.00;53.40;;;;;;1560272;74;1613;-70
2023/05/06 12:05:39;;;;;;;;;;;23.10;53.50;;;;;;1561119;74;730;-68
2023/05/06 12:07:42;;;;;;;;;;;23.00;53.40;;;;;;1568627;74;1184;-69
2023/05/06 12:09:45;;;;;;;;;;;23.00;53.40;;;;;;1572128;74;807;-69